Time;durP1;ratioP1;P1;durP2;ratioP2;P2;SDS_P1;SDS_P2;PMS_P1;PMS_P2;Temp;Humidity;BMP_temperature;BMP_pressure;BME280_temperature;BME280_humidity;BME280_pressure;Samples;Min_cycle;Max_cycle;Signal;HPM_P1;HPM_P2
2023/08/01 00:01:13;;;;;;;875.50;789.65;;;;;;;;;;4942181;29;20047;-64
2023/08/01 00:03:39;;;;;;;871.78;785.90;;;;;;;;;;4940837;29;20052;-63
2023/08/01 00:06:06;;;;;;;865.22;780.28;;;;;;;;;;4942552;29;20039;-63
2023/08/01 00:08:33;;;;;;;865.42;780.75;;;;;;;;;;4940475;29;20043;-63
2023/08/01 00:11:00;;;;;;;857.95;774.45;;;;;;;;;;4946338;29;20667;-64
2023/08/01 00:13:27;;;;;;;864.42;779.75;;;;;;;;;;4939865;29;20049;-63
2023/08/01 00:15:53;;;;;;;869.38;785.58;;;;;;;;;;4941214;29;20102;-62
2023/08/01 00:18:33;;;;;;;859.28;775.60;;;;;;;;;;4939019;29;20075;-64
2023/08/01 00:20:59;;;;;;;869.63;783.08;;;;;;;;;;4939981;29;20043;-64
2023/08/01 00:23:26;;;;;;;876.28;792.53;;;;;;;;;;4943382;29;20047;-61
2023/08/01 00:25:53;;;;;;;875.60;790.13;;;;;;;;;;4943587;29;20050;-61
2023/08/01 00:28:21;;;;;;;871.80;786.90;;;;;;;;;;4940452;29;20052;-65
2023/08/01 00:30:48;;;;;;;868.65;783.28;;;;;;;;;;4916400;29;20058;-62
2023/08/01 00:33:15;;;;;;;863.75;778.45;;;;;;;;;;4940218;29;20409;-62
2023/08/01 00:35:42;;;;;;;895.15;802.50;;;;;;;;;;4940213;29;20043;-65
2023/08/01 00:38:08;;;;;;;868.28;785.25;;;;;;;;;;4943176;29;20405;-62
2023/08/01 00:40:35;;;;;;;860.92;776.20;;;;;;;;;;4939862;29;20047;-65
2023/08/01 00:43:01;;;;;;;858.67;774.90;;;;;;;;;;4940896;29;20442;-62
2023/08/01 00:45:28;;;;;;;855.17;771.58;;;;;;;;;;4940554;29;20498;-64
2023/08/01 00:47:56;;;;;;;866.70;782.30;;;;;;;;;;4940407;29;20040;-61
2023/08/01 00:50:23;;;;;;;859.67;775.47;;;;;;;;;;4941913;29;20050;-64
2023/08/01 00:52:51;;;;;;;868.38;783.45;;;;;;;;;;4918139;29;20501;-68
2023/08/01 00:55:18;;;;;;;860.92;776.67;;;;;;;;;;4936817;29;20050;-63
2023/08/01 00:57:45;;;;;;;867.35;781.33;;;;;;;;;;4935663;29;20075;-65
2023/08/01 01:00:12;;;;;;;879.75;794.38;;;;;;;;;;4940577;29;20079;-62
2023/08/01 01:02:39;;;;;;;875.13;785.00;;;;;;;;;;4939892;29;20138;-61
2023/08/01 01:05:06;;;;;;;851.17;768.03;;;;;;;;;;4938976;29;20047;-62
2023/08/01 01:07:33;;;;;;;867.35;783.88;;;;;;;;;;4942719;29;20126;-63
2023/08/01 01:10:00;;;;;;;858.97;775.72;;;;;;;;;;4939875;29;20055;-65
2023/08/01 01:12:31;;;;;;;856.10;772.10;;;;;;;;;;4942299;29;20054;-62
2023/08/01 01:15:02;;;;;;;867.70;782.97;;;;;;;;;;4941458;29;20052;-63
2023/08/01 01:17:28;;;;;;;867.05;784.08;;;;;;;;;;4939622;29;20047;-61
2023/08/01 01:19:55;;;;;;;867.30;783.67;;;;;;;;;;4939145;29;20413;-63
2023/08/01 01:22:22;;;;;;;856.30;772.15;;;;;;;;;;4940063;29;20488;-62
2023/08/01 01:24:48;;;;;;;872.45;786.13;;;;;;;;;;4940132;29;20044;-62
2023/08/01 01:27:15;;;;;;;866.53;780.63;;;;;;;;;;4941862;29;20086;-62
2023/08/01 01:29:43;;;;;;;872.30;783.75;;;;;;;;;;4937645;29;20043;-63
2023/08/01 01:32:11;;;;;;;864.92;782.03;;;;;;;;;;4944020;29;20417;-63
2023/08/01 01:34:38;;;;;;;863.08;777.28;;;;;;;;;;4923498;29;20100;-64
2023/08/01 01:37:04;;;;;;;853.10;769.25;;;;;;;;;;4933526;29;20134;-63
2023/08/01 01:39:32;;;;;;;873.42;783.42;;;;;;;;;;4913405;29;20051;-64
2023/08/01 01:41:58;;;;;;;855.70;774.60;;;;;;;;;;4941544;29;20603;-62
2023/08/01 01:44:25;;;;;;;864.42;780.33;;;;;;;;;;4938702;29;20077;-63
2023/08/01 01:46:51;;;;;;;865.90;781.72;;;;;;;;;;4941766;29;20051;-64
2023/08/01 01:49:18;;;;;;;866.47;780.28;;;;;;;;;;4941863;29;20130;-63
2023/08/01 01:51:45;;;;;;;865.95;780.38;;;;;;;;;;4944519;29;20055;-65
2023/08/01 01:54:11;;;;;;;863.67;777.13;;;;;;;;;;4943220;29;20098;-62
2023/08/01 01:56:38;;;;;;;868.00;779.65;;;;;;;;;;4943205;29;20052;-63
2023/08/01 01:59:05;;;;;;;856.80;771.78;;;;;;;;;;4935882;29;20058;-65
2023/08/01 02:01:32;;;;;;;886.13;788.80;;;;;;;;;;4982624;23;20120;-61
2023/08/01 02:03:59;;;;;;;859.47;774.03;;;;;;;;;;5010296;28;20073;-61
2023/08/01 02:06:25;;;;;;;848.10;766.83;;;;;;;;;;4994084;28;20404;-61
2023/08/01 02:08:52;;;;;;;856.60;770.15;;;;;;;;;;5011711;28;20543;-61
2023/08/01 02:11:19;;;;;;;856.88;772.53;;;;;;;;;;4994718;28;20046;-60
2023/08/01 02:13:45;;;;;;;860.00;776.45;;;;;;;;;;5012114;28;20399;-61
2023/08/01 02:16:12;;;;;;;849.63;766.08;;;;;;;;;;4993789;28;20068;-61
2023/08/01 02:18:38;;;;;;;837.80;754.38;;;;;;;;;;5011430;28;20041;-61
2023/08/01 02:21:05;;;;;;;853.13;766.10;;;;;;;;;;4992941;28;20419;-61
2023/08/01 02:23:36;;;;;;;850.28;765.30;;;;;;;;;;4993167;28;20042;-62
2023/08/01 02:26:03;;;;;;;843.65;759.70;;;;;;;;;;4992479;28;20137;-61
2023/08/01 02:28:29;;;;;;;849.55;765.65;;;;;;;;;;4991998;28;20049;-61
2023/08/01 02:31:03;;;;;;;857.15;770.63;;;;;;;;;;5009819;28;20046;-61
2023/08/01 02:33:30;;;;;;;837.28;753.85;;;;;;;;;;5010126;28;20045;-61
2023/08/01 02:35:56;;;;;;;849.28;765.13;;;;;;;;;;5010608;28;20076;-60
2023/08/01 02:38:23;;;;;;;823.38;741.42;;;;;;;;;;5012304;28;20050;-60
2023/08/01 02:40:50;;;;;;;842.08;758.10;;;;;;;;;;5010524;28;20581;-61
2023/08/01 02:43:17;;;;;;;835.15;751.70;;;;;;;;;;5011314;28;20049;-61
2023/08/01 02:45:43;;;;;;;830.50;746.78;;;;;;;;;;4993408;28;20603;-60
2023/08/01 02:48:11;;;;;;;838.50;753.95;;;;;;;;;;4990280;28;20054;-60
2023/08/01 02:50:37;;;;;;;823.90;738.65;;;;;;;;;;5011389;28;20068;-61
2023/08/01 02:53:04;;;;;;;828.80;745.28;;;;;;;;;;5011625;28;20046;-61
2023/08/01 02:55:31;;;;;;;831.75;746.35;;;;;;;;;;4992569;28;20547;-61
2023/08/01 02:57:57;;;;;;;818.63;735.45;;;;;;;;;;5011339;28;20065;-61
2023/08/01 03:00:25;;;;;;;817.08;734.58;;;;;;;;;;4993357;28;20046;-61
2023/08/01 03:02:52;;;;;;;842.03;753.78;;;;;;;;;;4992845;28;20053;-62
2023/08/01 03:05:19;;;;;;;816.38;734.95;;;;;;;;;;5011759;28;20038;-61
2023/08/01 03:07:46;;;;;;;832.17;747.30;;;;;;;;;;5010457;28;20053;-61
2023/08/01 03:10:12;;;;;;;833.67;749.40;;;;;;;;;;5010193;28;20052;-62
2023/08/01 03:12:48;;;;;;;825.58;741.03;;;;;;;;;;5005052;28;20050;-62
2023/08/01 03:15:15;;;;;;;820.88;737.05;;;;;;;;;;4993029;28;20133;-62
2023/08/01 03:17:41;;;;;;;821.42;734.70;;;;;;;;;;5010899;28;20049;-62
2023/08/01 03:20:10;;;;;;;829.25;746.63;;;;;;;;;;5010487;28;20066;-61
2023/08/01 03:22:41;;;;;;;814.00;733.47;;;;;;;;;;4998455;28;20057;-61
2023/08/01 03:25:07;;;;;;;821.00;737.75;;;;;;;;;;4988418;28;20514;-61
2023/08/01 03:27:34;;;;;;;818.00;735.70;;;;;;;;;;4993333;28;20089;-62
2023/08/01 03:30:02;;;;;;;817.88;735.53;;;;;;;;;;5008771;28;20464;-62
2023/08/01 03:32:29;;;;;;;818.90;736.90;;;;;;;;;;4989860;28;20052;-62
2023/08/01 03:34:55;;;;;;;827.63;745.20;;;;;;;;;;4992347;28;20058;-62
2023/08/01 03:37:23;;;;;;;847.88;763.13;;;;;;;;;;4992597;28;20084;-61
2023/08/01 03:39:49;;;;;;;841.38;757.72;;;;;;;;;;5009666;28;20978;-62
2023/08/01 03:42:16;;;;;;;833.22;749.15;;;;;;;;;;4992533;28;20399;-62
2023/08/01 03:44:42;;;;;;;853.15;764.13;;;;;;;;;;4992025;28;20049;-62
2023/08/01 03:47:09;;;;;;;842.00;757.25;;;;;;;;;;4991611;28;20054;-62
2023/08/01 03:49:35;;;;;;;849.80;766.45;;;;;;;;;;4992359;28;20069;-62
2023/08/01 03:52:02;;;;;;;835.72;754.88;;;;;;;;;;5010027;28;20484;-62
2023/08/01 03:54:29;;;;;;;848.47;765.15;;;;;;;;;;5005844;28;20044;-61
2023/08/01 03:56:56;;;;;;;840.10;754.95;;;;;;;;;;5009536;28;20046;-62
2023/08/01 03:59:23;;;;;;;851.25;767.13;;;;;;;;;;5010599;28;20076;-61
2023/08/01 04:01:50;;;;;;;844.40;759.47;;;;;;;;;;5009658;28;20140;-62
2023/08/01 04:04:17;;;;;;;850.45;766.97;;;;;;;;;;5001628;28;20048;-61
2023/08/01 04:06:43;;;;;;;845.22;760.72;;;;;;;;;;4990861;28;20115;-62
2023/08/01 04:09:10;;;;;;;853.95;767.15;;;;;;;;;;5008973;28;20157;-62
2023/08/01 04:11:37;;;;;;;861.08;775.47;;;;;;;;;;5010015;28;20069;-62
2023/08/01 04:14:03;;;;;;;841.72;760.65;;;;;;;;;;5010227;28;20068;-62
2023/08/01 04:16:30;;;;;;;857.67;773.92;;;;;;;;;;4991496;28;20054;-62
2023/08/01 04:18:56;;;;;;;876.92;767.60;;;;;;;;;;5009336;28;20137;-61
2023/08/01 04:21:23;;;;;;;866.90;781.95;;;;;;;;;;5005676;28;20132;-62
2023/08/01 04:23:49;;;;;;;874.40;785.63;;;;;;;;;;5009284;28;20050;-62
2023/08/01 04:26:16;;;;;;;865.58;781.28;;;;;;;;;;5009894;28;20054;-61
2023/08/01 04:28:43;;;;;;;865.75;780.33;;;;;;;;;;4991290;28;20048;-62
2023/08/01 04:31:09;;;;;;;870.60;786.20;;;;;;;;;;5009117;28;20775;-62
2023/08/01 04:33:36;;;;;;;861.30;778.10;;;;;;;;;;5009132;28;20046;-62
2023/08/01 04:36:03;;;;;;;872.28;787.90;;;;;;;;;;5009386;28;20096;-61
2023/08/01 04:38:29;;;;;;;875.47;790.72;;;;;;;;;;5009915;28;20065;-61
2023/08/01 04:40:56;;;;;;;884.88;799.28;;;;;;;;;;5008165;28;20054;-61
2023/08/01 04:43:22;;;;;;;867.05;784.75;;;;;;;;;;5008949;28;20033;-63
2023/08/01 04:45:49;;;;;;;893.22;806.65;;;;;;;;;;5008673;28;20052;-62
2023/08/01 04:48:15;;;;;;;894.50;808.67;;;;;;;;;;5005650;28;20046;-62
2023/08/01 04:50:42;;;;;;;905.88;817.25;;;;;;;;;;5008652;28;20049;-62
2023/08/01 04:53:08;;;;;;;900.22;813.97;;;;;;;;;;4992087;28;20066;-62
2023/08/01 04:55:35;;;;;;;906.92;821.42;;;;;;;;;;4990354;28;20112;-62
2023/08/01 04:58:02;;;;;;;902.70;818.13;;;;;;;;;;5008812;28;20066;-62
2023/08/01 05:00:28;;;;;;;892.78;809.00;;;;;;;;;;5008788;28;20050;-61
2023/08/01 05:02:55;;;;;;;900.90;814.45;;;;;;;;;;5008352;28;23576;-62
2023/08/01 05:05:21;;;;;;;903.28;817.47;;;;;;;;;;5009651;28;20070;-62
2023/08/01 05:07:48;;;;;;;909.10;822.63;;;;;;;;;;5008602;28;20120;-61
2023/08/01 05:10:14;;;;;;;928.33;840.95;;;;;;;;;;5007966;28;20515;-61
2023/08/01 05:12:43;;;;;;;923.17;833.70;;;;;;;;;;5008514;28;20038;-62
2023/08/01 05:15:10;;;;;;;938.15;850.60;;;;;;;;;;5008587;28;20201;-62
2023/08/01 05:17:36;;;;;;;967.97;879.40;;;;;;;;;;5008765;28;20056;-62
2023/08/01 05:20:04;;;;;;;994.67;904.72;;;;;;;;;;5008737;28;20053;-62
2023/08/01 05:22:30;;;;;;;1018.72;926.45;;;;;;;;;;5008590;28;20116;-62
2023/08/01 05:24:57;;;;;;;1044.72;951.05;;;;;;;;;;5008046;28;20042;-62
2023/08/01 05:27:24;;;;;;;1067.10;971.50;;;;;;;;;;5005483;28;20138;-62
2023/08/01 05:29:50;;;;;;;1079.13;981.20;;;;;;;;;;5008443;28;20050;-62
2023/08/01 05:32:17;;;;;;;1083.47;987.25;;;;;;;;;;5009292;28;20411;-62
2023/08/01 05:34:43;;;;;;;1077.55;979.15;;;;;;;;;;5008663;28;20057;-61
2023/08/01 05:37:10;;;;;;;1104.00;988.22;;;;;;;;;;5008239;28;20080;-62
2023/08/01 05:39:36;;;;;;;1078.90;980.25;;;;;;;;;;5007772;28;20104;-63
2023/08/01 05:42:08;;;;;;;1068.15;968.47;;;;;;;;;;5004875;28;20041;-63
2023/08/01 05:44:35;;;;;;;1073.88;979.33;;;;;;;;;;5005801;28;20041;-63
2023/08/01 05:47:01;;;;;;;1068.68;973.55;;;;;;;;;;5007644;28;20093;-62
2023/08/01 05:49:29;;;;;;;1065.22;972.10;;;;;;;;;;5008207;28;20076;-62
2023/08/01 05:51:56;;;;;;;1070.25;975.53;;;;;;;;;;5008195;28;20048;-62
2023/08/01 05:54:23;;;;;;;1066.45;968.42;;;;;;;;;;5004547;28;20230;-62
2023/08/01 05:56:49;;;;;;;1072.03;972.63;;;;;;;;;;5005097;28;20989;-62
2023/08/01 05:59:17;;;;;;;1063.40;962.25;;;;;;;;;;5003485;28;20138;-62
2023/08/01 06:01:44;;;;;;;1052.53;957.83;;;;;;;;;;5004920;28;20509;-62
2023/08/01 06:04:11;;;;;;;1049.18;954.22;;;;;;;;;;5007791;28;20050;-63
2023/08/01 06:06:38;;;;;;;1032.50;939.83;;;;;;;;;;5008217;28;20053;-62
2023/08/01 06:09:05;;;;;;;1034.38;940.95;;;;;;;;;;5007619;28;20046;-63
2023/08/01 06:11:33;;;;;;;1040.72;948.58;;;;;;;;;;5006160;28;20046;-63
2023/08/01 06:14:00;;;;;;;1035.40;942.33;;;;;;;;;;5007924;28;20050;-62
2023/08/01 06:16:27;;;;;;;1045.35;950.60;;;;;;;;;;5007308;28;20046;-63
2023/08/01 06:18:54;;;;;;;1043.22;947.67;;;;;;;;;;5003695;28;20034;-63
2023/08/01 06:21:20;;;;;;;1039.57;945.83;;;;;;;;;;5006613;28;20088;-63
2023/08/01 06:23:47;;;;;;;1035.10;940.03;;;;;;;;;;5006132;28;20054;-64
2023/08/01 06:26:15;;;;;;;1043.60;949.72;;;;;;;;;;5008190;28;20510;-63
2023/08/01 06:28:42;;;;;;;1066.68;959.40;;;;;;;;;;5007705;28;20480;-63
2023/08/01 06:31:09;;;;;;;1035.80;942.38;;;;;;;;;;5005230;28;20026;-63
2023/08/01 06:33:35;;;;;;;1033.60;943.13;;;;;;;;;;5011090;28;20088;-63
2023/08/01 06:36:02;;;;;;;1033.65;941.05;;;;;;;;;;5011257;28;20045;-67
2023/08/01 06:38:29;;;;;;;1042.20;949.55;;;;;;;;;;5012027;28;20447;-62
2023/08/01 06:40:55;;;;;;;1047.97;956.47;;;;;;;;;;5010404;28;20836;-63
2023/08/01 06:43:24;;;;;;;1060.88;966.65;;;;;;;;;;5011357;28;20096;-63
2023/08/01 06:45:52;;;;;;;1075.53;979.50;;;;;;;;;;5011047;28;20037;-63
2023/08/01 06:48:18;;;;;;;1075.28;980.60;;;;;;;;;;5007625;28;20045;-63
2023/08/01 06:50:45;;;;;;;1084.78;984.83;;;;;;;;;;5008695;28;20054;-62
2023/08/01 06:53:12;;;;;;;1081.25;983.33;;;;;;;;;;4993810;28;20144;-63
2023/08/01 06:55:38;;;;;;;1082.53;988.47;;;;;;;;;;5009365;28;20100;-63
2023/08/01 06:58:05;;;;;;;1088.28;991.33;;;;;;;;;;5009661;28;20120;-63
2023/08/01 07:00:32;;;;;;;1102.97;998.92;;;;;;;;;;5009547;28;20550;-63
2023/08/01 07:02:58;;;;;;;1097.82;997.92;;;;;;;;;;5007390;28;20052;-63
2023/08/01 07:05:25;;;;;;;1096.93;998.25;;;;;;;;;;5010349;28;20038;-64
2023/08/01 07:07:52;;;;;;;1089.28;993.83;;;;;;;;;;5010306;28;20510;-64
2023/08/01 07:10:18;;;;;;;1103.00;999.90;;;;;;;;;;5010214;28;20522;-65
2023/08/01 07:12:45;;;;;;;1111.57;999.90;;;;;;;;;;5010783;28;20096;-66
2023/08/01 07:15:11;;;;;;;1104.90;999.17;;;;;;;;;;5010801;28;20561;-65
2023/08/01 07:17:38;;;;;;;1105.43;999.90;;;;;;;;;;5007503;28;20484;-64
2023/08/01 07:20:05;;;;;;;1096.60;998.40;;;;;;;;;;5011387;28;20056;-64
2023/08/01 07:22:31;;;;;;;1103.55;999.53;;;;;;;;;;5009106;28;20484;-64
2023/08/01 07:24:58;;;;;;;1113.93;999.90;;;;;;;;;;5009851;28;20116;-64
2023/08/01 07:27:25;;;;;;;1098.28;998.40;;;;;;;;;;5010097;28;20038;-64
2023/08/01 07:29:52;;;;;;;1109.47;999.90;;;;;;;;;;5009851;28;20653;-64
2023/08/01 07:32:18;;;;;;;1112.10;999.90;;;;;;;;;;5011347;28;20057;-63
2023/08/01 07:34:45;;;;;;;1104.47;999.90;;;;;;;;;;5009748;28;20420;-65
2023/08/01 07:37:12;;;;;;;1092.00;994.42;;;;;;;;;;5009831;28;20058;-64
2023/08/01 07:39:39;;;;;;;1090.93;995.50;;;;;;;;;;5009643;28;20357;-64
2023/08/01 07:42:05;;;;;;;1096.80;998.10;;;;;;;;;;5006529;28;20030;-64
2023/08/01 07:44:32;;;;;;;1104.97;999.90;;;;;;;;;;5011108;28;20522;-63
2023/08/01 07:46:58;;;;;;;1124.72;999.90;;;;;;;;;;5009468;28;20052;-64
2023/08/01 07:49:25;;;;;;;1119.20;999.90;;;;;;;;;;5010078;28;20045;-64
2023/08/01 07:51:52;;;;;;;1142.45;999.90;;;;;;;;;;5007999;28;20052;-64
2023/08/01 07:54:18;;;;;;;1142.60;999.90;;;;;;;;;;5008048;28;20034;-64
2023/08/01 07:56:48;;;;;;;1152.72;999.90;;;;;;;;;;5002185;28;20041;-64
2023/08/01 07:59:15;;;;;;;1137.95;999.90;;;;;;;;;;5010472;28;20088;-64
2023/08/01 08:01:42;;;;;;;1152.15;999.90;;;;;;;;;;5008668;28;20432;-64
2023/08/01 08:04:08;;;;;;;1152.60;999.90;;;;;;;;;;5007804;28;20041;-64
2023/08/01 08:06:35;;;;;;;1147.20;999.90;;;;;;;;;;4989989;28;20115;-64
2023/08/01 08:09:03;;;;;;;1137.43;999.90;;;;;;;;;;5007747;28;20045;-63
2023/08/01 08:11:29;;;;;;;1141.75;999.90;;;;;;;;;;5008567;28;20052;-63
2023/08/01 08:13:56;;;;;;;1136.60;999.90;;;;;;;;;;5007901;28;20550;-63
2023/08/01 08:16:23;;;;;;;1138.78;999.90;;;;;;;;;;5007796;28;20104;-63
2023/08/01 08:18:49;;;;;;;1137.40;999.90;;;;;;;;;;5008225;28;20048;-63
2023/08/01 08:21:16;;;;;;;1147.80;999.90;;;;;;;;;;5007651;28;20050;-63
2023/08/01 08:23:42;;;;;;;1157.32;999.90;;;;;;;;;;5004550;28;20450;-63
2023/08/01 08:26:09;;;;;;;1151.18;999.90;;;;;;;;;;5006581;28;20038;-63
2023/08/01 08:28:36;;;;;;;1142.35;999.90;;;;;;;;;;5007468;28;20407;-74
2023/08/01 08:31:03;;;;;;;1146.57;999.90;;;;;;;;;;5007335;28;20038;-71
2023/08/01 08:33:30;;;;;;;1132.72;999.90;;;;;;;;;;5007179;28;20037;-74
2023/08/01 08:35:56;;;;;;;1137.32;999.90;;;;;;;;;;4990980;28;20618;-74
2023/08/01 08:38:23;;;;;;;1135.05;999.90;;;;;;;;;;4992303;28;20100;-76
2023/08/01 08:40:59;;;;;;;1140.00;999.90;;;;;;;;;;4990413;28;20049;-65
2023/08/01 08:43:26;;;;;;;1138.05;999.90;;;;;;;;;;4987078;28;20111;-64
2023/08/01 08:45:55;;;;;;;1143.72;999.90;;;;;;;;;;5009126;28;20113;-57
2023/08/01 08:48:22;;;;;;;1142.00;999.90;;;;;;;;;;5005295;28;20038;-62
2023/08/01 08:50:48;;;;;;;1151.05;999.90;;;;;;;;;;5008854;28;20491;-61
2023/08/01 08:53:17;;;;;;;1135.50;999.90;;;;;;;;;;5009766;28;20046;-61
2023/08/01 08:55:44;;;;;;;1147.05;999.90;;;;;;;;;;4988558;28;20050;-64
2023/08/01 08:58:10;;;;;;;1145.95;999.90;;;;;;;;;;5008780;28;20054;-62
2023/08/01 09:00:37;;;;;;;1149.63;999.90;;;;;;;;;;4989939;28;20045;-61
2023/08/01 09:03:04;;;;;;;1133.88;999.90;;;;;;;;;;5008501;28;20054;-61
2023/08/01 09:05:34;;;;;;;1137.13;999.90;;;;;;;;;;5008356;28;20050;-61
2023/08/01 09:08:04;;;;;;;1121.00;999.90;;;;;;;;;;5006912;28;20507;-61
2023/08/01 09:10:31;;;;;;;1127.00;999.90;;;;;;;;;;5006360;28;20135;-61
2023/08/01 09:12:58;;;;;;;1122.85;999.90;;;;;;;;;;5006674;28;20092;-61
2023/08/01 09:15:26;;;;;;;1106.45;999.90;;;;;;;;;;5007320;28;20042;-61
2023/08/01 09:17:56;;;;;;;1129.97;999.90;;;;;;;;;;5007123;28;20073;-61
2023/08/01 09:20:23;;;;;;;1109.60;999.90;;;;;;;;;;5004817;28;20118;-61
2023/08/01 09:22:49;;;;;;;1101.88;999.90;;;;;;;;;;5008189;28;20719;-61
2023/08/01 09:25:16;;;;;;;1101.97;999.90;;;;;;;;;;4999970;28;20054;-61
2023/08/01 09:27:43;;;;;;;1107.85;999.90;;;;;;;;;;5007827;28;20581;-61
2023/08/01 09:30:11;;;;;;;1089.22;992.30;;;;;;;;;;5009399;28;20070;-62
2023/08/01 09:32:37;;;;;;;1076.53;980.80;;;;;;;;;;4993966;28;20052;-61
2023/08/01 09:35:05;;;;;;;1068.82;973.85;;;;;;;;;;5010838;28;20088;-61
2023/08/01 09:37:38;;;;;;;1077.35;980.85;;;;;;;;;;5010748;28;20042;-61
2023/08/01 09:40:05;;;;;;;1069.03;974.47;;;;;;;;;;5006469;28;20042;-61
2023/08/01 09:42:42;;;;;;;1076.95;979.25;;;;;;;;;;4965005;28;20050;-62
2023/08/01 09:45:15;;;;;;;1082.03;971.10;;;;;;;;;;5008565;28;20042;-61
2023/08/01 09:47:43;;;;;;;1062.53;966.42;;;;;;;;;;5006877;28;20104;-61
2023/08/01 09:50:20;;;;;;;1062.90;971.33;;;;;;;;;;5010811;28;20045;-61
2023/08/01 09:52:52;;;;;;;1066.22;974.17;;;;;;;;;;5010179;28;20403;-61
2023/08/01 09:55:19;;;;;;;;;;;;;;;;;;5010749;28;20579;-61
2023/08/01 09:57:46;;;;;;;1075.80;975.63;;;;;;;;;;5010574;28;19921;-61
2023/08/01 10:00:13;;;;;;;1111.82;999.75;;;;;;;;;;5009531;28;20183;-61
2023/08/01 10:02:42;;;;;;;1082.88;989.30;;;;;;;;;;5010304;28;20123;-62
2023/08/01 10:05:10;;;;;;;1101.43;999.90;;;;;;;;;;5010808;28;20120;-61
2023/08/01 10:07:39;;;;;;;1100.50;999.83;;;;;;;;;;5013520;28;20073;-61
2023/08/01 10:10:06;;;;;;;1101.10;999.05;;;;;;;;;;4995662;28;20129;-63
2023/08/01 10:12:33;;;;;;;1096.78;998.42;;;;;;;;;;5013545;28;20042;-63
2023/08/01 10:15:00;;;;;;;1115.00;999.90;;;;;;;;;;4996178;28;20049;-64
2023/08/01 10:17:27;;;;;;;1108.63;995.30;;;;;;;;;;5014750;28;20050;-64
2023/08/01 10:19:56;;;;;;;1097.90;999.30;;;;;;;;;;5014187;28;20484;-64
2023/08/01 10:22:23;;;;;;;1104.32;999.90;;;;;;;;;;5010031;28;20063;-63
2023/08/01 10:24:50;;;;;;;1089.65;994.92;;;;;;;;;;5009630;28;20038;-64
2023/08/01 10:27:20;;;;;;;1092.95;996.97;;;;;;;;;;5013763;28;20042;-64
2023/08/01 10:30:00;;;;;;;1104.95;999.85;;;;;;;;;;4994459;28;20041;-64
2023/08/01 10:32:34;;;;;;;1100.95;999.30;;;;;;;;;;4993418;28;20061;-64
2023/08/01 10:35:01;;;;;;;1083.47;990.17;;;;;;;;;;5014057;28;20121;-64
2023/08/01 10:37:38;;;;;;;1093.68;998.17;;;;;;;;;;5013257;28;20445;-64
2023/08/01 10:40:06;;;;;;;1093.82;995.38;;;;;;;;;;5013340;28;20446;-63
2023/08/01 10:42:39;;;;;;;1076.80;984.30;;;;;;;;;;5013047;28;20057;-65
2023/08/01 10:45:06;;;;;;;1080.00;985.47;;;;;;;;;;5013658;28;20044;-65
2023/08/01 10:47:32;;;;;;;1077.22;984.88;;;;;;;;;;5014142;28;20038;-64
2023/08/01 10:50:00;;;;;;;1073.82;982.50;;;;;;;;;;5013314;28;20108;-64
2023/08/01 10:52:27;;;;;;;1072.07;979.22;;;;;;;;;;5012976;28;20053;-65
2023/08/01 10:54:59;;;;;;;1065.65;973.10;;;;;;;;;;5012751;28;20439;-65
2023/08/01 10:57:29;;;;;;;1056.55;963.72;;;;;;;;;;5013176;28;20041;-63
2023/08/01 10:59:56;;;;;;;1057.63;962.92;;;;;;;;;;5013087;28;20050;-64
2023/08/01 11:02:24;;;;;;;1044.07;953.22;;;;;;;;;;5013973;28;20062;-68
2023/08/01 11:04:55;;;;;;;1036.15;946.60;;;;;;;;;;4995359;28;20078;-67
2023/08/01 11:07:23;;;;;;;1043.63;951.50;;;;;;;;;;5012740;28;20092;-67
2023/08/01 11:10:00;;;;;;;1041.35;950.40;;;;;;;;;;5013022;28;20462;-65
2023/08/01 11:12:27;;;;;;;1024.40;933.72;;;;;;;;;;5012855;28;20048;-68
2023/08/01 11:14:58;;;;;;;1043.05;948.20;;;;;;;;;;5012859;28;20046;-66
2023/08/01 11:20:23;;;;;;;1937.07;999.90;;;;;;;;;;4799222;29;20927;-84
2023/08/01 11:22:50;;;;;;;1879.05;999.90;;;;;;;;;;4802120;29;20040;-85
2023/08/01 11:25:17;;;;;;;1948.82;999.90;;;;;;;;;;4796112;29;20048;-84
2023/08/01 11:27:43;;;;;;;1975.85;999.90;;;;;;;;;;4790082;29;20044;-84
2023/08/01 11:30:10;;;;;;;1999.90;999.90;;;;;;;;;;4792130;29;20873;-85
2023/08/01 11:32:38;;;;;;;1999.90;999.90;;;;;;;;;;4786228;29;20955;-84
2023/08/01 11:35:05;;;;;;;1998.85;999.90;;;;;;;;;;4794714;29;20044;-84
2023/08/01 11:37:32;;;;;;;1921.00;999.90;;;;;;;;;;4789039;29;20052;-84
2023/08/01 11:39:59;;;;;;;1999.90;999.90;;;;;;;;;;4789541;29;21216;-85
2023/08/01 11:42:30;;;;;;;1990.95;999.90;;;;;;;;;;4789835;29;20047;-85
2023/08/01 11:45:07;;;;;;;1999.90;999.90;;;;;;;;;;4787182;29;20044;-85
2023/08/01 11:47:33;;;;;;;1925.15;999.90;;;;;;;;;;4770322;29;20243;-84
2023/08/01 11:50:00;;;;;;;1919.65;999.90;;;;;;;;;;4791196;29;20059;-84
2023/08/01 11:52:27;;;;;;;1992.60;999.90;;;;;;;;;;4794790;29;20565;-85
2023/08/01 11:54:57;;;;;;;1920.25;999.90;;;;;;;;;;4813340;29;20062;-88
2023/08/01 11:57:26;;;;;;;1868.18;999.90;;;;;;;;;;4802580;29;20048;-89
2023/08/01 12:03:30;;;;;;;1873.00;999.90;;;;;;;;;;4720854;29;20546;-88
2023/08/01 12:07:01;;;;;;;1577.68;999.90;;;;;;;;;;4705121;29;20045;-89
2023/08/01 12:10:20;;;;;;;1653.63;999.90;;;;;;;;;;4675785;30;20890;-89
2023/08/01 12:25:20;;;;;;;1249.35;999.90;;;;;;;;;;4622102;30;20700;-90
2023/08/01 12:31:54;;;;;;;1109.80;990.95;;;;;;;;;;4682874;30;20584;-90
2023/08/01 12:34:36;;;;;;;;;;;;;;;;;;;;;
2023/08/01 12:53:45;;;;;;;1039.82;946.08;;;;;;;;;;6080438;23;1397312;-67
2023/08/01 12:56:13;;;;;;;1045.63;952.90;;;;;;;;;;6102580;23;20057;-66
2023/08/01 12:58:40;;;;;;;1036.07;945.13;;;;;;;;;;6103842;23;20014;-66
2023/08/01 13:01:06;;;;;;;1038.70;942.70;;;;;;;;;;6103952;23;20334;-66
2023/08/01 13:03:34;;;;;;;1035.82;942.60;;;;;;;;;;6104153;23;20748;-66
2023/08/01 13:06:01;;;;;;;1037.55;943.55;;;;;;;;;;6104104;23;20014;-69
2023/08/01 13:08:29;;;;;;;1040.72;949.42;;;;;;;;;;6104069;23;20025;-68
2023/08/01 13:10:59;;;;;;;1037.00;946.17;;;;;;;;;;6103478;23;20444;-69
2023/08/01 13:13:26;;;;;;;1040.28;948.30;;;;;;;;;;6103958;23;20458;-69
2023/08/01 13:15:53;;;;;;;1055.90;960.40;;;;;;;;;;6106558;23;20022;-69
2023/08/01 13:18:20;;;;;;;1047.50;954.85;;;;;;;;;;6107058;23;20066;-69
2023/08/01 13:20:46;;;;;;;1055.28;959.67;;;;;;;;;;6107080;23;20025;-69
2023/08/01 13:23:13;;;;;;;1055.45;963.33;;;;;;;;;;6109131;23;20052;-68
2023/08/01 13:25:40;;;;;;;1059.57;966.70;;;;;;;;;;6106315;23;20018;-69
2023/08/01 13:28:07;;;;;;;1054.57;962.78;;;;;;;;;;6106550;23;20351;-69
2023/08/01 13:30:34;;;;;;;1065.38;973.22;;;;;;;;;;6109733;23;20018;-69
2023/08/01 13:33:01;;;;;;;1075.57;978.33;;;;;;;;;;6108977;23;20038;-69
2023/08/01 13:35:28;;;;;;;1064.95;972.97;;;;;;;;;;6111547;23;20028;-68
2023/08/01 13:37:54;;;;;;;1058.03;965.90;;;;;;;;;;6108815;23;20042;-68
2023/08/01 13:40:21;;;;;;;1057.85;964.95;;;;;;;;;;6110079;23;20018;-69
2023/08/01 13:42:48;;;;;;;1068.05;971.92;;;;;;;;;;6109637;23;20018;-69
2023/08/01 13:45:15;;;;;;;1058.47;965.30;;;;;;;;;;6111253;23;20088;-69
2023/08/01 13:47:45;;;;;;;1060.68;967.17;;;;;;;;;;6108794;23;20108;-69
2023/08/01 13:50:12;;;;;;;1051.78;959.85;;;;;;;;;;6108782;23;20428;-68
2023/08/01 13:52:39;;;;;;;1051.20;957.40;;;;;;;;;;6102802;23;20330;-68
2023/08/01 13:55:07;;;;;;;1048.22;956.38;;;;;;;;;;6102756;23;20042;-68
2023/08/01 13:57:34;;;;;;;1045.30;953.65;;;;;;;;;;6103074;23;20078;-69
2023/08/01 14:00:01;;;;;;;1060.97;965.38;;;;;;;;;;6100572;23;20029;-69
2023/08/01 14:02:44;;;;;;;1044.28;952.42;;;;;;;;;;6103245;23;20018;-68
2023/08/01 14:05:11;;;;;;;1052.72;960.65;;;;;;;;;;6103064;23;20049;-69
2023/08/01 14:07:38;;;;;;;1047.97;956.22;;;;;;;;;;6101544;23;20022;-68
2023/08/01 14:10:09;;;;;;;1052.88;961.15;;;;;;;;;;6102282;23;20029;-69
2023/08/01 14:12:36;;;;;;;1048.78;958.10;;;;;;;;;;6103287;23;20022;-68
2023/08/01 14:15:03;;;;;;;1054.78;959.63;;;;;;;;;;6076686;23;20030;-69
2023/08/01 14:17:30;;;;;;;1055.25;962.75;;;;;;;;;;6101815;23;20093;-68
2023/08/01 14:19:57;;;;;;;1040.00;949.38;;;;;;;;;;6102676;23;20050;-69
2023/08/01 14:22:26;;;;;;;1051.05;959.83;;;;;;;;;;6102569;23;20028;-69
2023/08/01 14:24:53;;;;;;;1048.18;956.35;;;;;;;;;;6102133;23;20026;-67
2023/08/01 14:27:19;;;;;;;1030.78;940.00;;;;;;;;;;6102667;23;20022;-69
2023/08/01 14:29:46;;;;;;;1035.82;943.42;;;;;;;;;;6103304;23;20046;-70